Time;durP1;ratioP1;P1;durP2;ratioP2;P2;SDS_P1;SDS_P2;PMS_P1;PMS_P2;Temp;Humidity;BMP_temperature;BMP_pressure;BME280_temperature;BME280_humidity;BME280_pressure;Samples;Min_cycle;Max_cycle;Signal;HPM_P1;HPM_P2
2024/01/19 00:00:39;;;;;;;2.28;1.00;;;4.60;99.90;;;;;;10305004;28;20113;-87
2024/01/19 00:05:40;;;;;;;1.33;0.57;;;4.60;99.90;;;;;;10309647;28;20037;-85
2024/01/19 00:10:40;;;;;;;2.47;1.23;;;4.50;99.90;;;;;;10304978;28;20022;-85
2024/01/19 00:15:42;;;;;;;1.80;0.77;;;4.60;99.90;;;;;;10311440;28;20324;-87
2024/01/19 00:20:42;;;;;;;2.35;1.10;;;4.60;99.90;;;;;;10308226;28;20483;-87
2024/01/19 00:25:43;;;;;;;5.70;1.50;;;4.50;99.90;;;;;;10304242;28;20171;-85
2024/01/19 00:30:44;;;;;;;2.35;1.15;;;4.50;99.90;;;;;;10306942;28;20026;-87
2024/01/19 00:35:44;;;;;;;1.65;0.80;;;4.50;99.90;;;;;;10303794;28;20046;-87
2024/01/19 00:40:45;;;;;;;2.75;1.00;;;4.50;99.90;;;;;;10307327;28;20267;-87
2024/01/19 00:45:45;;;;;;;1.35;0.95;;;4.50;99.90;;;;;;10299268;28;20195;-87
2024/01/19 00:50:47;;;;;;;2.15;0.90;;;4.60;99.90;;;;;;10297817;28;20058;-85
2024/01/19 00:55:48;;;;;;;1.92;0.98;;;4.50;99.90;;;;;;10302805;28;20124;-86
2024/01/19 01:00:48;;;;;;;1.27;0.90;;;4.50;99.90;;;;;;10313856;28;20026;-87
2024/01/19 01:05:49;;;;;;;2.53;0.90;;;4.50;99.90;;;;;;10313848;28;20747;-86
2024/01/19 01:10:50;;;;;;;2.22;0.80;;;4.50;99.90;;;;;;10315688;28;20537;-86
2024/01/19 01:15:50;;;;;;;2.22;1.00;;;4.50;99.90;;;;;;10307524;28;20449;-84
2024/01/19 01:20:51;;;;;;;4.72;1.00;;;4.50;99.90;;;;;;10316089;28;20392;-86
2024/01/19 01:25:52;;;;;;;1.17;0.77;;;4.50;99.90;;;;;;10312037;28;20023;-87
2024/01/19 01:30:52;;;;;;;2.35;1.00;;;4.50;99.90;;;;;;10311959;28;20026;-84
2024/01/19 01:35:53;;;;;;;1.83;1.02;;;4.50;99.90;;;;;;10318277;28;20062;-86
2024/01/19 01:40:54;;;;;;;2.47;0.93;;;4.50;99.90;;;;;;10307091;28;20030;-86
2024/01/19 01:45:54;;;;;;;1.73;0.93;;;4.50;99.90;;;;;;10312441;28;20034;-87
2024/01/19 01:50:57;;;;;;;4.40;1.00;;;4.50;99.90;;;;;;10308641;28;20030;-86
2024/01/19 01:55:58;;;;;;;1.45;0.90;;;4.50;99.90;;;;;;10313344;28;20033;-86
2024/01/19 02:00:59;;;;;;;2.35;0.80;;;4.50;99.90;;;;;;10307890;28;20026;-86
2024/01/19 02:05:59;;;;;;;1.70;0.77;;;4.50;99.90;;;;;;10301971;28;20095;-86
2024/01/19 02:11:00;;;;;;;2.28;0.80;;;4.50;99.90;;;;;;10311879;28;20018;-86
2024/01/19 02:16:00;;;;;;;1.13;0.80;;;4.50;99.90;;;;;;10309410;28;20617;-85
2024/01/19 02:21:02;;;;;;;1.95;1.00;;;4.50;99.90;;;;;;10311080;28;20031;-87
2024/01/19 02:26:04;;;;;;;1.13;0.75;;;4.50;99.90;;;;;;10307346;28;20495;-85
2024/01/19 02:31:05;;;;;;;0.75;0.75;;;4.50;99.90;;;;;;10311431;28;20417;-86
2024/01/19 02:36:06;;;;;;;1.00;0.70;;;4.50;99.90;;;;;;10305235;28;20030;-86
2024/01/19 02:41:06;;;;;;;2.15;1.10;;;4.40;99.90;;;;;;10302999;28;20042;-87
2024/01/19 02:46:08;;;;;;;2.55;1.35;;;4.40;99.90;;;;;;10305099;28;20045;-87
2024/01/19 02:51:09;;;;;;;1.27;0.88;;;4.40;99.90;;;;;;10310523;28;20041;-86
2024/01/19 02:56:09;;;;;;;1.45;0.77;;;4.50;99.90;;;;;;10306819;28;20038;-86
2024/01/19 03:01:10;;;;;;;1.98;0.90;;;4.50;99.90;;;;;;10306059;28;20033;-86
2024/01/19 03:06:11;;;;;;;1.65;0.80;;;4.40;99.90;;;;;;10308175;28;20113;-86
2024/01/19 03:11:12;;;;;;;0.93;0.70;;;4.40;99.90;;;;;;10306593;28;20054;-86
2024/01/19 03:16:13;;;;;;;1.30;0.60;;;4.50;99.90;;;;;;10314011;28;20034;-86
2024/01/19 03:21:13;;;;;;;2.60;0.75;;;4.50;99.90;;;;;;10304154;28;20035;-87
2024/01/19 03:26:14;;;;;;;1.15;0.60;;;4.40;99.90;;;;;;10301536;28;20311;-85
2024/01/19 03:31:15;;;;;;;3.63;0.80;;;4.40;99.90;;;;;;10306865;28;20478;-86
2024/01/19 03:36:15;;;;;;;1.45;0.77;;;4.50;99.90;;;;;;10308167;28;20034;-87
2024/01/19 03:41:16;;;;;;;2.60;0.70;;;4.50;99.90;;;;;;10309516;28;20026;-86
2024/01/19 03:46:16;;;;;;;1.10;0.70;;;4.50;99.90;;;;;;10306860;28;20327;-86
2024/01/19 03:51:17;;;;;;;1.35;0.70;;;4.50;99.90;;;;;;10309671;28;20021;-86
2024/01/19 03:56:18;;;;;;;1.02;0.88;;;4.50;99.90;;;;;;10309511;28;20176;-85
2024/01/19 04:01:19;;;;;;;1.10;0.60;;;4.50;99.90;;;;;;10307671;28;20026;-86
2024/01/19 04:06:19;;;;;;;0.90;0.55;;;4.50;99.90;;;;;;10301896;28;20030;-86
2024/01/19 04:11:20;;;;;;;1.23;0.95;;;4.50;99.90;;;;;;10308464;28;20049;-86
2024/01/19 04:16:20;;;;;;;1.88;0.75;;;4.50;99.90;;;;;;10304554;28;20038;-86
2024/01/19 04:21:21;;;;;;;1.02;0.70;;;4.50;99.90;;;;;;10297580;28;20023;-86
2024/01/19 04:26:24;;;;;;;0.73;0.50;;;4.50;99.90;;;;;;10304386;28;20492;-85
2024/01/19 04:31:25;;;;;;;0.60;0.43;;;5.60;99.90;;;;;;10305168;28;20057;-86
2024/01/19 04:36:26;;;;;;;0.95;0.57;;;4.50;99.90;;;;;;10311513;28;20114;-85
2024/01/19 04:41:26;;;;;;;0.98;0.43;;;4.50;99.90;;;;;;10310403;28;20010;-86
2024/01/19 04:46:27;;;;;;;0.85;0.50;;;4.50;99.90;;;;;;10308653;28;20085;-85
2024/01/19 04:51:28;;;;;;;1.67;0.60;;;4.50;99.90;;;;;;10303778;28;20034;-86
2024/01/19 04:56:28;;;;;;;0.70;0.47;;;4.50;99.90;;;;;;10317762;28;20041;-86
2024/01/19 05:01:29;;;;;;;0.95;0.60;;;5.20;99.90;;;;;;10319467;28;20607;-87
2024/01/19 05:06:29;;;;;;;0.43;0.40;;;4.50;99.90;;;;;;10319821;28;20529;-88
2024/01/19 05:11:30;;;;;;;2.78;0.50;;;4.50;99.90;;;;;;10303260;28;20495;-86
2024/01/19 05:16:31;;;;;;;1.65;0.65;;;4.50;99.90;;;;;;10306019;28;20034;-83
2024/01/19 05:21:31;;;;;;;1.23;0.52;;;4.50;99.90;;;;;;10311501;28;20019;-86
2024/01/19 05:26:32;;;;;;;0.95;0.50;;;4.50;99.90;;;;;;10308374;28;20026;-87
2024/01/19 05:31:32;;;;;;;0.93;0.30;;;5.00;99.90;;;;;;10311634;28;20083;-87
2024/01/19 05:36:34;;;;;;;0.80;0.40;;;4.50;99.90;;;;;;10310363;28;20457;-85
2024/01/19 05:41:34;;;;;;;1.17;0.40;;;4.50;99.90;;;;;;10307822;28;20062;-85
2024/01/19 05:46:35;;;;;;;0.80;0.50;;;4.50;99.90;;;;;;10312409;28;20157;-86
2024/01/19 05:51:36;;;;;;;1.15;0.43;;;4.50;99.90;;;;;;10307381;28;20045;-86
2024/01/19 05:56:36;;;;;;;2.17;0.50;;;4.50;99.90;;;;;;10304891;28;20027;-87
2024/01/19 06:01:37;;;;;;;1.20;0.50;;;4.50;99.90;;;;;;10324090;28;20400;-86
2024/01/19 06:06:38;;;;;;;1.73;0.45;;;4.50;99.90;;;;;;10306374;28;20019;-86
2024/01/19 06:11:38;;;;;;;0.88;0.50;;;4.50;99.90;;;;;;10312405;28;20027;-86
2024/01/19 06:16:39;;;;;;;1.00;0.50;;;4.40;99.90;;;;;;10313933;28;20045;-87
2024/01/19 06:21:44;;;;;;;2.75;0.50;;;4.40;99.90;;;;;;10303262;28;20026;-86
2024/01/19 06:26:46;;;;;;;0.70;0.50;;;4.40;99.90;;;;;;10309547;28;20133;-86
2024/01/19 06:31:48;;;;;;;1.75;0.40;;;4.40;99.90;;;;;;10305709;28;20027;-86
2024/01/19 06:36:48;;;;;;;1.45;0.60;;;4.40;99.90;;;;;;10302242;28;20413;-85
2024/01/19 06:41:49;;;;;;;0.88;0.40;;;4.40;99.90;;;;;;10311937;28;20037;-86
2024/01/19 06:46:49;;;;;;;0.75;0.45;;;5.70;99.90;;;;;;10304970;28;20100;-87
2024/01/19 06:51:50;;;;;;;0.70;0.43;;;4.40;99.90;;;;;;10306435;28;20026;-86
2024/01/19 06:56:50;;;;;;;1.15;0.85;;;4.40;99.90;;;;;;10299625;28;20395;-89
2024/01/19 07:01:51;;;;;;;0.65;0.50;;;4.40;99.90;;;;;;10298339;28;20049;-84
2024/01/19 07:06:52;;;;;;;2.25;0.40;;;4.40;99.90;;;;;;10301379;28;20037;-84
2024/01/19 07:11:53;;;;;;;0.98;0.52;;;4.40;99.90;;;;;;10307182;28;20026;-86
2024/01/19 07:16:53;;;;;;;1.08;0.60;;;4.40;99.90;;;;;;10310163;28;20360;-86
2024/01/19 07:21:54;;;;;;;1.23;0.63;;;4.40;99.90;;;;;;10312624;28;20026;-87
2024/01/19 07:26:54;;;;;;;0.73;0.30;;;4.40;99.90;;;;;;10300920;28;20459;-86
2024/01/19 07:31:55;;;;;;;0.90;0.47;;;4.40;99.90;;;;;;10322755;28;20038;-88
2024/01/19 07:36:56;;;;;;;0.70;0.40;;;4.30;99.90;;;;;;10305033;28;20453;-87
2024/01/19 07:41:56;;;;;;;1.58;0.50;;;4.40;99.90;;;;;;10310100;28;20394;-87
2024/01/19 07:46:57;;;;;;;1.35;0.63;;;4.40;99.90;;;;;;10307920;28;20050;-87
2024/01/19 07:51:58;;;;;;;1.67;0.43;;;4.40;99.90;;;;;;10311355;28;20104;-86
2024/01/19 07:56:58;;;;;;;0.57;0.40;;;4.40;99.90;;;;;;10310217;28;21061;-86
2024/01/19 08:02:00;;;;;;;0.90;0.43;;;4.40;99.90;;;;;;10307125;28;20035;-86
2024/01/19 08:07:02;;;;;;;0.80;0.40;;;4.40;99.90;;;;;;10304464;28;20027;-84
2024/01/19 08:12:03;;;;;;;2.35;0.40;;;4.30;99.90;;;;;;10301586;28;20033;-86
2024/01/19 08:17:04;;;;;;;0.40;0.30;;;4.00;99.90;;;;;;10304542;28;20061;-87
2024/01/19 08:22:05;;;;;;;0.50;0.30;;;4.40;99.90;;;;;;10313215;28;20023;-88
2024/01/19 08:27:05;;;;;;;0.50;0.40;;;4.40;99.90;;;;;;10292490;28;20073;-86
2024/01/19 08:32:06;;;;;;;1.02;0.40;;;4.40;99.90;;;;;;10303376;28;20258;-86
2024/01/19 08:37:06;;;;;;;1.75;0.63;;;4.40;99.90;;;;;;10307851;28;20025;-84
2024/01/19 08:42:07;;;;;;;0.40;0.30;;;4.40;99.90;;;;;;10302155;28;20034;-86
2024/01/19 08:47:07;;;;;;;0.65;0.40;;;4.50;99.90;;;;;;10306533;28;20058;-86
2024/01/19 08:52:08;;;;;;;0.80;0.40;;;4.40;99.90;;;;;;10301412;28;20031;-86
2024/01/19 08:57:09;;;;;;;0.80;0.52;;;4.50;99.90;;;;;;10308625;28;20053;-86
2024/01/19 09:02:09;;;;;;;0.68;0.40;;;4.50;99.90;;;;;;10313759;28;20023;-87
2024/01/19 09:07:10;;;;;;;1.20;0.70;;;4.50;99.90;;;;;;10301902;28;20313;-86
2024/01/19 09:12:10;;;;;;;1.10;0.60;;;4.50;99.90;;;;;;10304120;28;20031;-83
2024/01/19 09:17:11;;;;;;;1.33;0.60;;;4.50;99.90;;;;;;10308269;28;20034;-87
2024/01/19 09:22:13;;;;;;;1.25;0.63;;;4.50;99.90;;;;;;10315350;28;20394;-87
2024/01/19 09:27:13;;;;;;;2.33;0.82;;;4.50;99.90;;;;;;10311502;28;20101;-85
2024/01/19 09:32:16;;;;;;;0.90;0.50;;;4.60;99.90;;;;;;10307222;28;20417;-86
2024/01/19 09:37:17;;;;;;;1.67;1.00;;;5.50;99.90;;;;;;10309450;28;20510;-87
2024/01/19 09:42:24;;;;;;;3.20;0.88;;;4.70;99.90;;;;;;10310141;28;20021;-86
2024/01/19 09:47:49;;;;;;;1.45;0.95;;;4.80;99.80;;;;;;10317955;28;20101;-86
2024/01/19 09:53:01;;;;;;;2.20;0.93;;;4.80;99.80;;;;;;10312992;28;20038;-86
2024/01/19 09:58:01;;;;;;;1.63;1.00;;;4.80;99.80;;;;;;10311365;28;20034;-85
2024/01/19 10:03:04;;;;;;;3.42;1.15;;;4.80;99.80;;;;;;10307213;28;20494;-86
2024/01/19 10:08:06;;;;;;;2.03;0.90;;;4.90;99.80;;;;;;10306796;28;20049;-86
2024/01/19 10:13:07;;;;;;;1.98;0.88;;;4.90;99.80;;;;;;10311695;28;20560;-85
2024/01/19 10:18:08;;;;;;;2.63;1.13;;;5.00;99.70;;;;;;10314543;28;20050;-87
2024/01/19 10:23:23;;;;;;;1.48;0.75;;;5.00;99.70;;;;;;10307352;28;20510;-87
2024/01/19 10:28:35;;;;;;;2.60;0.70;;;5.00;99.70;;;;;;10304891;28;20045;-87
2024/01/19 10:33:36;;;;;;;1.45;0.88;;;5.10;99.70;;;;;;10307862;28;20138;-86
2024/01/19 10:38:39;;;;;;;4.43;0.90;;;5.10;99.70;;;;;;10307256;28;20030;-86
2024/01/19 10:43:40;;;;;;;1.98;0.90;;;5.20;99.70;;;;;;10300436;28;20027;-87
2024/01/19 10:48:41;;;;;;;1.27;0.93;;;5.20;99.60;;;;;;10309858;28;20026;-87
2024/01/19 10:53:42;;;;;;;2.72;1.00;;;6.80;99.90;;;;;;10305343;28;20029;-86
2024/01/19 10:58:45;;;;;;;2.25;1.23;;;6.50;99.90;;;;;;10304932;28;20054;-86
2024/01/19 11:03:46;;;;;;;2.03;0.70;;;5.40;99.60;;;;;;10305219;28;20470;-88
2024/01/19 11:08:47;;;;;;;0.75;0.60;;;5.40;99.50;;;;;;10310757;28;20036;-87
2024/01/19 11:13:53;;;;;;;0.80;0.60;;;5.50;99.50;;;;;;10309077;28;20123;-86
2024/01/19 11:18:55;;;;;;;5.03;1.33;;;5.50;99.50;;;;;;10308463;28;20022;-87
2024/01/19 11:23:56;;;;;;;2.22;1.00;;;5.60;99.40;;;;;;10311999;28;20463;-86
2024/01/19 11:29:14;;;;;;;2.90;0.80;;;5.60;99.40;;;;;;10305739;28;20085;-87
2024/01/19 11:34:50;;;;;;;3.88;0.90;;;5.70;99.40;;;;;;10299522;28;20031;-86
2024/01/19 11:39:51;;;;;;;1.33;0.77;;;5.70;99.40;;;;;;10303958;28;20166;-87
2024/01/19 11:44:52;;;;;;;1.45;0.90;;;5.80;99.40;;;;;;10301759;28;20034;-86
2024/01/19 11:49:52;;;;;;;2.08;0.90;;;5.80;99.40;;;;;;10308124;28;20118;-87
2024/01/19 11:54:53;;;;;;;2.90;1.00;;;5.80;99.40;;;;;;10307500;28;20081;-88
2024/01/19 11:59:54;;;;;;;1.85;0.90;;;5.90;99.30;;;;;;10313554;28;20030;-87
2024/01/19 12:04:57;;;;;;;2.03;0.80;;;5.90;99.30;;;;;;10306602;28;20502;-87
2024/01/19 12:10:15;;;;;;;7.40;2.00;;;5.90;99.30;;;;;;10310291;28;20060;-86
2024/01/19 12:15:17;;;;;;;3.33;1.25;;;5.90;99.40;;;;;;10309486;28;20035;-85
2024/01/19 12:20:18;;;;;;;1.38;0.75;;;5.90;99.40;;;;;;10306418;28;20545;-86
2024/01/19 12:25:21;;;;;;;1.75;0.95;;;5.90;99.40;;;;;;10310625;28;20022;-87
2024/01/19 12:30:21;;;;;;;3.22;1.10;;;5.90;99.50;;;;;;10307148;28;20026;-87
2024/01/19 12:35:22;;;;;;;2.80;0.80;;;5.90;99.50;;;;;;10307080;28;20034;-84
2024/01/19 12:40:24;;;;;;;1.05;0.70;;;5.90;99.60;;;;;;10313713;28;20034;-87
2024/01/19 12:45:25;;;;;;;3.03;1.02;;;5.90;99.60;;;;;;10308518;28;20029;-85
2024/01/19 12:50:30;;;;;;;1.52;0.68;;;5.90;99.60;;;;;;10308779;28;20401;-86
2024/01/19 12:55:33;;;;;;;1.60;0.93;;;5.80;99.60;;;;;;10314950;28;20022;-86
2024/01/19 13:00:33;;;;;;;2.90;0.63;;;5.80;99.60;;;;;;10321372;28;20014;-87
2024/01/19 13:05:35;;;;;;;2.67;1.00;;;5.80;99.70;;;;;;10317249;28;20038;-87
2024/01/19 13:10:36;;;;;;;3.25;0.85;;;5.80;99.70;;;;;;10316787;28;20058;-87
2024/01/19 13:15:37;;;;;;;5.95;1.30;;;5.80;99.70;;;;;;10317269;28;20566;-86
2024/01/19 13:20:39;;;;;;;2.90;0.80;;;5.80;99.70;;;;;;10331938;28;20550;-86
2024/01/19 13:25:39;;;;;;;5.97;1.30;;;5.80;99.60;;;;;;10314242;28;20110;-86
2024/01/19 13:30:40;;;;;;;1.95;0.63;;;5.80;99.70;;;;;;10313854;28;20026;-86
2024/01/19 13:35:40;;;;;;;4.55;1.02;;;5.70;99.40;;;;;;10318805;28;20022;-85
2024/01/19 13:40:41;;;;;;;6.63;1.08;;;5.80;99.60;;;;;;10313002;28;20018;-86
2024/01/19 13:45:41;;;;;;;5.88;0.95;;;5.80;99.50;;;;;;10316054;28;20510;-86
2024/01/19 13:50:42;;;;;;;3.17;0.80;;;5.80;99.50;;;;;;10317634;28;20056;-87
2024/01/19 13:55:43;;;;;;;2.22;0.70;;;5.80;99.50;;;;;;10306659;28;20042;-87
2024/01/19 14:00:44;;;;;;;2.20;0.88;;;5.80;99.50;;;;;;10312172;28;20141;-87
2024/01/19 14:05:47;;;;;;;2.80;0.90;;;5.80;99.50;;;;;;10313910;28;20023;-86
2024/01/19 14:10:49;;;;;;;3.35;0.60;;;5.80;99.60;;;;;;10316284;28;20038;-87
2024/01/19 14:15:50;;;;;;;1.55;0.95;;;5.90;99.60;;;;;;10308917;28;20030;-89
2024/01/19 14:20:50;;;;;;;1.95;0.80;;;5.90;99.50;;;;;;10309364;28;20216;-86
2024/01/19 14:25:52;;;;;;;7.05;1.10;;;5.90;99.50;;;;;;10309650;28;20600;-86
2024/01/19 14:30:52;;;;;;;3.30;0.90;;;5.90;99.60;;;;;;10311216;28;20031;-87
2024/01/19 14:35:53;;;;;;;2.75;1.20;;;6.00;99.60;;;;;;10310223;28;20034;-86
2024/01/19 14:40:54;;;;;;;4.00;1.02;;;6.00;99.50;;;;;;10315396;28;20025;-85
2024/01/19 14:45:55;;;;;;;4.60;0.90;;;5.90;99.60;;;;;;10312984;28;20034;-86
2024/01/19 14:50:56;;;;;;;2.05;0.98;;;5.90;99.70;;;;;;10312503;28;20115;-86
2024/01/19 14:55:56;;;;;;;2.55;0.90;;;7.30;99.90;;;;;;10306983;28;21213;-86
2024/01/19 15:00:57;;;;;;;1.45;0.70;;;6.20;99.80;;;;;;10313415;28;20034;-87
2024/01/19 15:05:58;;;;;;;1.58;0.60;;;5.80;99.80;;;;;;10304159;28;20049;-86
2024/01/19 15:10:59;;;;;;;6.68;1.45;;;5.80;99.80;;;;;;10317774;28;20301;-85
2024/01/19 15:16:00;;;;;;;1.88;1.42;;;5.80;99.80;;;;;;10301076;28;20030;-86
2024/01/19 15:21:00;;;;;;;2.65;0.88;;;5.70;99.90;;;;;;10302872;28;20058;-87
2024/01/19 15:26:01;;;;;;;3.08;1.20;;;5.70;99.90;;;;;;10308824;28;20027;-86
2024/01/19 15:31:04;;;;;;;2.20;0.95;;;5.80;99.90;;;;;;10304262;28;20306;-88
2024/01/19 15:36:09;;;;;;;5.10;1.50;;;5.70;99.90;;;;;;10304676;28;20558;-85
2024/01/19 15:41:10;;;;;;;5.15;1.30;;;5.70;99.90;;;;;;10304098;28;20623;-86
2024/01/19 15:46:10;;;;;;;3.85;0.98;;;5.70;99.90;;;;;;10298300;28;20030;-84
2024/01/19 15:51:23;;;;;;;3.03;1.27;;;5.60;99.90;;;;;;10308376;28;20033;-86
2024/01/19 15:56:27;;;;;;;1.45;1.02;;;5.60;99.90;;;;;;10298521;28;20089;-86
2024/01/19 16:01:28;;;;;;;2.25;1.30;;;5.60;99.90;;;;;;10303230;28;20019;-85
2024/01/19 16:06:29;;;;;;;2.63;1.10;;;7.00;99.90;;;;;;10302659;28;20225;-88
2024/01/19 16:11:34;;;;;;;7.30;1.17;;;5.60;99.90;;;;;;10307538;28;20034;-86
2024/01/19 16:16:35;;;;;;;2.63;1.30;;;5.60;99.90;;;;;;10305260;28;20030;-86
2024/01/19 16:21:36;;;;;;;4.55;1.42;;;5.60;99.90;;;;;;10308545;28;20035;-86
2024/01/19 16:26:36;;;;;;;9.77;1.65;;;6.40;99.90;;;;;;10306711;28;20022;-86
2024/01/19 16:31:37;;;;;;;2.78;1.23;;;5.80;99.90;;;;;;10310773;28;20033;-86
2024/01/19 16:36:41;;;;;;;2.38;1.25;;;5.70;99.90;;;;;;10310407;28;20245;-85
2024/01/19 16:41:44;;;;;;;3.15;1.30;;;5.70;99.90;;;;;;10314163;28;20018;-85
2024/01/19 16:46:44;;;;;;;4.93;1.40;;;5.70;99.90;;;;;;10311922;28;20034;-86
2024/01/19 16:51:48;;;;;;;3.25;1.27;;;5.60;99.90;;;;;;10317573;28;20182;-85
2024/01/19 16:56:51;;;;;;;2.47;1.20;;;5.60;99.90;;;;;;10314384;28;20038;-85
2024/01/19 17:01:52;;;;;;;1.70;1.10;;;5.60;99.90;;;;;;10311337;28;20029;-85
2024/01/19 17:06:52;;;;;;;2.88;1.35;;;5.60;99.90;;;;;;10317845;28;20380;-85
2024/01/19 17:11:53;;;;;;;2.55;1.13;;;5.60;99.90;;;;;;10315787;28;20495;-84
2024/01/19 17:16:54;;;;;;;4.75;1.38;;;5.60;99.90;;;;;;10312945;28;20050;-86
2024/01/19 17:21:54;;;;;;;5.03;1.48;;;5.60;99.90;;;;;;10308443;28;20034;-85
2024/01/19 17:26:55;;;;;;;2.47;1.25;;;5.60;99.90;;;;;;10312410;28;20015;-85
2024/01/19 17:31:56;;;;;;;3.55;1.40;;;5.60;99.90;;;;;;10303734;28;20150;-86
2024/01/19 17:36:56;;;;;;;2.85;1.20;;;5.60;99.90;;;;;;10308733;28;20034;-86
2024/01/19 17:41:57;;;;;;;1.88;1.10;;;5.50;99.90;;;;;;10313613;28;20030;-86
2024/01/19 17:47:00;;;;;;;2.38;1.10;;;5.50;99.90;;;;;;10308581;28;20038;-87
2024/01/19 17:52:01;;;;;;;3.28;1.30;;;5.50;99.90;;;;;;10309190;28;20072;-86
2024/01/19 17:57:02;;;;;;;3.83;1.20;;;5.50;99.90;;;;;;10319657;28;20018;-86
2024/01/19 18:02:03;;;;;;;1.83;1.10;;;5.50;99.90;;;;;;10313707;28;20023;-85
2024/01/19 18:07:04;;;;;;;1.90;1.10;;;5.50;99.90;;;;;;10297790;28;20526;-86
2024/01/19 18:12:05;;;;;;;1.67;1.15;;;5.40;99.90;;;;;;10311010;28;20042;-85
2024/01/19 18:17:05;;;;;;;2.95;1.00;;;5.40;99.90;;;;;;10310640;28;20031;-87
2024/01/19 18:22:06;;;;;;;2.30;1.20;;;5.50;99.90;;;;;;10310756;28;20033;-86
2024/01/19 18:27:07;;;;;;;2.58;1.10;;;5.60;99.90;;;;;;10313424;28;20036;-88
2024/01/19 18:32:07;;;;;;;4.13;1.58;;;5.60;99.90;;;;;;10307565;28;20561;-87
2024/01/19 18:37:09;;;;;;;1.60;0.90;;;6.90;99.90;;;;;;10304093;28;20037;-88
2024/01/19 18:42:10;;;;;;;1.83;1.02;;;6.20;99.90;;;;;;10314577;28;20588;-86
2024/01/19 18:47:11;;;;;;;3.30;1.23;;;5.40;99.90;;;;;;10301833;28;20053;-85
2024/01/19 18:52:13;;;;;;;2.25;1.30;;;5.40;99.90;;;;;;10302353;28;20037;-85
2024/01/19 18:57:14;;;;;;;2.47;1.27;;;5.30;99.90;;;;;;10301354;28;20023;-86
2024/01/19 19:02:15;;;;;;;2.47;1.25;;;6.70;99.90;;;;;;10308362;28;20034;-86
2024/01/19 19:07:17;;;;;;;2.58;1.25;;;5.30;99.90;;;;;;10312681;28;20103;-87
2024/01/19 19:12:18;;;;;;;1.88;1.20;;;5.30;99.90;;;;;;10312671;28;20026;-87
2024/01/19 19:17:18;;;;;;;1.92;1.20;;;5.30;99.90;;;;;;10310345;28;20026;-86
2024/01/19 19:22:19;;;;;;;3.15;1.40;;;5.30;99.90;;;;;;10313874;28;20022;-86
2024/01/19 19:27:20;;;;;;;3.97;1.35;;;5.30;99.90;;;;;;10307868;28;20042;-85
2024/01/19 19:32:21;;;;;;;3.40;1.23;;;5.30;99.90;;;;;;10307850;28;20022;-86
2024/01/19 19:37:22;;;;;;;4.78;1.70;;;5.20;99.90;;;;;;10309799;28;20097;-87
2024/01/19 19:42:24;;;;;;;4.43;1.48;;;5.30;99.90;;;;;;10310234;28;20042;-86
2024/01/19 19:47:24;;;;;;;2.65;1.70;;;5.20;99.90;;;;;;10308252;28;20556;-86
2024/01/19 19:52:25;;;;;;;2.70;1.58;;;5.20;99.90;;;;;;10310737;28;20121;-86
2024/01/19 19:57:25;;;;;;;2.95;1.60;;;5.20;99.90;;;;;;10309235;28;20038;-86
2024/01/19 20:02:26;;;;;;;2.70;1.80;;;5.20;99.90;;;;;;10309814;28;20080;-86
2024/01/19 20:07:26;;;;;;;2.55;1.73;;;5.20;99.90;;;;;;10300662;28;20129;-87
2024/01/19 20:12:27;;;;;;;3.15;1.50;;;5.20;99.90;;;;;;10310480;28;20521;-86
2024/01/19 20:17:28;;;;;;;3.70;1.40;;;5.20;99.90;;;;;;10311980;28;20030;-86
2024/01/19 20:22:28;;;;;;;2.92;1.75;;;5.20;99.90;;;;;;10305348;28;20487;-87
2024/01/19 20:27:29;;;;;;;3.65;1.63;;;5.20;99.90;;;;;;10310781;28;20483;-87
2024/01/19 20:32:29;;;;;;;2.00;1.52;;;5.20;99.90;;;;;;10306591;28;20520;-86
2024/01/19 20:37:31;;;;;;;2.20;1.40;;;5.20;99.90;;;;;;10307960;28;20501;-86
2024/01/19 20:42:31;;;;;;;2.42;1.45;;;5.10;99.90;;;;;;10310402;28;20305;-86
2024/01/19 20:47:32;;;;;;;3.42;1.25;;;5.10;99.90;;;;;;10309069;28;20161;-87
2024/01/19 20:52:33;;;;;;;1.90;1.30;;;5.10;99.90;;;;;;10309120;28;20042;-86
2024/01/19 20:57:33;;;;;;;4.72;1.55;;;5.10;99.90;;;;;;10304936;28;20033;-86
2024/01/19 21:02:34;;;;;;;2.40;1.48;;;5.10;99.90;;;;;;10310567;28;20026;-86
2024/01/19 21:07:35;;;;;;;3.30;1.90;;;5.10;99.90;;;;;;10305058;28;20141;-86
2024/01/19 21:12:36;;;;;;;3.22;1.48;;;;;;;;;;10314834;28;20034;-85
2024/01/19 21:17:39;;;;;;;2.65;1.30;;;5.10;99.90;;;;;;10313149;28;20039;-85
2024/01/19 21:22:40;;;;;;;3.30;1.60;;;5.10;99.90;;;;;;10314037;28;20022;-86
2024/01/19 21:27:41;;;;;;;3.72;1.50;;;5.10;99.90;;;;;;10312557;28;20027;-87
2024/01/19 21:32:42;;;;;;;3.35;1.48;;;5.10;99.90;;;;;;10314576;28;20551;-87
2024/01/19 21:37:43;;;;;;;4.75;1.70;;;5.00;99.90;;;;;;10311116;28;20030;-86
2024/01/19 21:42:46;;;;;;;2.70;1.15;;;5.10;99.90;;;;;;10311945;28;20026;-87
2024/01/19 21:47:46;;;;;;;2.10;1.40;;;5.10;99.90;;;;;;10320315;28;20113;-87
2024/01/19 21:52:47;;;;;;;2.95;1.63;;;5.10;99.90;;;;;;10316126;28;20085;-86
2024/01/19 21:57:47;;;;;;;3.67;1.80;;;5.00;99.90;;;;;;10305013;28;20400;-86
2024/01/19 22:02:48;;;;;;;2.10;1.35;;;5.00;99.90;;;;;;10314925;28;20026;-87
2024/01/19 22:07:49;;;;;;;2.22;1.60;;;5.00;99.90;;;;;;10313418;28;20038;-87
2024/01/19 22:12:49;;;;;;;4.00;1.80;;;5.00;99.90;;;;;;10317377;28;20086;-86
2024/01/19 22:17:50;;;;;;;3.15;1.73;;;5.00;99.90;;;;;;10315797;28;20415;-85
2024/01/19 22:22:50;;;;;;;3.67;1.90;;;5.70;99.90;;;;;;10312946;28;20483;-86
2024/01/19 22:27:51;;;;;;;4.15;2.00;;;5.00;99.90;;;;;;10312419;28;20030;-87
2024/01/19 22:32:52;;;;;;;3.40;2.05;;;5.00;99.90;;;;;;10307023;28;20465;-87
2024/01/19 22:37:52;;;;;;;2.60;1.98;;;6.00;99.90;;;;;;10304625;28;20404;-87
2024/01/19 22:42:53;;;;;;;3.80;1.80;;;5.00;99.90;;;;;;10312389;28;20030;-86
2024/01/19 22:47:53;;;;;;;3.92;2.08;;;5.00;99.90;;;;;;10307044;28;20073;-86
2024/01/19 22:52:54;;;;;;;4.68;2.35;;;5.00;99.90;;;;;;10308907;28;20031;-87
2024/01/19 22:57:54;;;;;;;4.75;2.67;;;5.00;99.90;;;;;;10293821;28;20410;-87
2024/01/19 23:02:55;;;;;;;3.90;2.40;;;5.00;99.90;;;;;;10307222;28;20039;-87
2024/01/19 23:07:56;;;;;;;3.22;2.15;;;4.90;99.90;;;;;;10306426;28;20030;-86
2024/01/19 23:12:56;;;;;;;4.45;2.50;;;5.00;99.90;;;;;;10307968;28;20384;-87
2024/01/19 23:17:57;;;;;;;4.82;2.28;;;4.90;99.90;;;;;;10302776;28;20034;-87
2024/01/19 23:22:57;;;;;;;4.53;2.55;;;4.90;99.90;;;;;;10304848;28;20077;-87
2024/01/19 23:27:58;;;;;;;4.53;2.70;;;4.90;99.90;;;;;;10306015;28;20447;-86
2024/01/19 23:32:59;;;;;;;5.03;2.65;;;4.90;99.90;;;;;;10305429;28;20027;-87
2024/01/19 23:38:00;;;;;;;2.95;2.33;;;5.50;99.90;;;;;;10303154;28;20851;-87
2024/01/19 23:43:00;;;;;;;4.30;2.92;;;4.90;99.90;;;;;;10300777;28;20037;-86
2024/01/19 23:48:05;;;;;;;6.18;3.20;;;4.90;99.90;;;;;;10307821;28;20386;-85
2024/01/19 23:53:06;;;;;;;6.47;2.78;;;4.90;99.90;;;;;;10304877;28;20026;-87
2024/01/19 23:58:06;;;;;;;4.45;3.13;;;4.90;99.90;;;;;;10304262;28;20031;-87
